Latest Coastal Weather Observations for Cape Wessel

IDD60701

Issued at 11:31 am CST Monday 23 July 2018 (issued every 10 minutes, with the page automatically refreshed every 10 minutes)

About coastal observations | Map of coastal stations | Coastal observations for NT | Marine services | Other Formats
Station Details ID: 200786 Name: CAPE WESSEL Lat: -11.00 Lon: 136.76 Height: 18.0 m
Data from the previous 72 hours. | See also: Recent months at Cape Wessel
Date/Time
CST
Wind Sea
Height
m
Swell Vis
km
Cloud Weather Temp
°C
Press
hPa
Rain since
9am
mm
Dir  Spd
kts
Gust
kts
Height
m
Period
s
Dir
23/11:30am SE 13 17 - - - - - - - 30.1 1014.8 0.0
23/11:00am SE 14 17 - - - - - - - 29.6 1015.1 0.0
23/10:30am SE 14 17 - - - - - - - 29.1 1015.2 0.0
23/10:00am SE 14 18 - - - - - - - 28.8 1015.2 0.0
23/09:30am SSE 13 17 - - - - - - - 28.0 1015.2 0.0
23/09:00am SSE 13 16 - - - - - - - 27.1 1015.2 0.0
23/08:30am SSE 13 17 - - - - - - - 26.3 1015.0 0.0
23/08:00am SSE 13 16 - - - - - - - 25.4 1014.5 0.0
23/07:30am SSE 12 15 - - - - - - - 24.6 1014.4 0.0
23/07:00am SSE 13 15 - - - - - - - 23.9 1014.0 0.0
23/06:30am SSE 13 15 - - - - - - - 23.9 1013.7 0.0
23/06:00am SE 13 16 - - - - - - - 23.9 1013.6 0.0
23/05:30am SSE 13 17 - - - - - - - 24.0 1013.3 0.0
23/05:00am SE 13 16 - - - - - - - 23.9 1013.1 0.0
23/04:30am SSE 13 16 - - - - - - - 24.0 1012.8 0.0
23/04:00am SSE 14 16 - - - - - - - 23.9 1012.9 0.0
23/03:30am SSE 14 17 - - - - - - - 24.0 1013.1 0.0
23/03:00am SE 15 19 - - - - - - - 24.0 1013.1 0.0
23/02:30am SSE 17 20 - - - - - - - 24.2 1013.3 0.0
23/02:00am SSE 16 19 - - - - - - - 24.1 1013.6 0.0
23/01:30am SE 15 21 - - - - - - - 24.3 1013.9 0.0
23/01:00am SSE 17 21 - - - - - - - 24.1 1014.1 0.0
23/12:30am SSE 17 21 - - - - - - - 24.1 1014.2 0.0
23/12:00am SSE 17 21 - - - - - - - 24.3 1014.3 0.0
 
Date/Time
CST
Wind Sea
Height
m
Swell Vis
km
Cloud Weather Temp
°C
Press
hPa
Rain since
9am
mm
Dir  Spd
kts
Gust
kts
Height
m
Period
s
Dir
22/11:30pm SSE 16 21 - - - - - - - 24.3 1014.5 0.0
22/11:00pm SSE 17 22 - - - - - - - 24.4 1014.8 0.0
22/10:30pm SSE 17 22 - - - - - - - 24.6 1014.8 0.0
22/10:00pm SSE 20 25 - - - - - - - 24.3 1014.7 0.0
22/09:30pm SSE 20 25 - - - - - - - 24.5 1014.5 0.0
22/09:00pm SSE 21 25 - - - - - - - 24.6 1014.4 0.0
22/08:30pm SSE 20 24 - - - - - - - 24.7 1014.3 0.0
22/08:00pm SSE 21 25 - - - - - - - 24.4 1014.0 0.0
22/07:30pm SSE 21 26 - - - - - - - 24.8 1013.7 0.0
22/07:00pm SSE 22 26 - - - - - - - 24.9 1013.3 0.0
22/06:30pm SSE 20 26 - - - - - - - 25.0 1013.0 0.0
22/06:00pm SSE 20 25 - - - - - - - 25.2 1012.9 0.0
22/05:30pm SSE 21 27 - - - - - - - 25.5 1012.5 0.0
22/05:00pm SSE 21 25 - - - - - - - 25.7 1012.3 0.0
22/04:30pm SSE 20 25 - - - - - - - 25.8 1012.1 0.0
22/04:00pm SSE 21 25 - - - - - - - 26.8 1012.0 0.0
22/03:30pm SSE 19 25 - - - - - - - 27.1 1011.9 0.0
22/03:00pm SSE 20 25 - - - - - - - 27.8 1012.0 0.0
22/02:30pm SSE 19 25 - - - - - - - 27.8 1012.3 0.0
22/02:00pm SSE 19 24 - - - - - - - 28.5 1012.5 0.0
22/01:30pm SSE 17 22 - - - - - - - 30.0 1013.0 0.0
22/01:00pm SSE 16 21 - - - - - - - 29.5 1013.6 0.0
22/12:30pm SSE 16 21 - - - - - - - 29.7 1014.1 0.0
22/12:00pm SSE 16 20 - - - - - - - 30.1 1014.6 0.0
22/11:30am SSE 15 19 - - - - - - - 30.1 1015.0 0.0
22/11:00am SE 16 19 - - - - - - - 29.8 1015.4 0.0
22/10:30am SSE 14 17 - - - - - - - 27.9 1015.7 0.0
22/10:00am SSE 14 17 - - - - - - - 28.7 1015.7 0.0
22/09:30am SSE 15 17 - - - - - - - 27.0 1015.7 0.0
22/09:00am SSE 15 19 - - - - - - - 26.9 1015.6 0.0
22/08:30am SE 15 18 - - - - - - - 26.0 1015.5 0.0
22/08:00am SE 14 17 - - - - - - - 25.5 1015.1 0.0
22/07:30am SSE 15 18 - - - - - - - 24.6 1014.7 0.0
22/07:00am SSE 13 16 - - - - - - - 24.1 1014.5 0.0
22/06:30am SE 14 18 - - - - - - - 23.9 1014.2 0.0
22/06:00am SE 14 17 - - - - - - - 24.0 1014.0 0.0
22/05:30am SE 13 16 - - - - - - - 24.1 1013.7 0.0
22/05:00am SE 13 15 - - - - - - - 23.7 1013.6 0.0
22/04:30am SE 13 16 - - - - - - - 23.9 1013.5 0.0
22/04:00am SE 13 16 - - - - - - - 24.0 1013.5 0.0
22/03:30am SE 14 17 - - - - - - - 24.0 1013.5 0.0
22/03:00am SE 13 17 - - - - - - - 23.8 1013.5 0.0
22/02:30am SSE 13 17 - - - - - - - 23.8 1013.6 0.0
22/02:00am SE 15 18 - - - - - - - 24.1 1013.7 0.0
22/01:30am SE 15 19 - - - - - - - 24.1 1013.9 0.0
22/01:00am SE 17 21 - - - - - - - 24.1 1014.2 0.0
22/12:30am SSE 18 22 - - - - - - - 24.1 1014.4 0.0
22/12:00am SSE 18 22 - - - - - - - 24.2 1014.6 0.0
 
Date/Time
CST
Wind Sea
Height
m
Swell Vis
km
Cloud Weather Temp
°C
Press
hPa
Rain since
9am
mm
Dir  Spd
kts
Gust
kts
Height
m
Period
s
Dir
21/11:30pm SE 18 23 - - - - - - - 24.1 1014.8 0.0
21/11:00pm SE 19 23 - - - - - - - 24.3 1014.9 0.0
21/10:30pm SE 21 25 - - - - - - - 24.3 1015.2 0.0
21/10:00pm SSE 21 25 - - - - - - - 24.4 1015.1 0.0
21/09:30pm SE 21 25 - - - - - - - 24.5 1015.0 0.0
21/09:00pm SSE 21 26 - - - - - - - 24.4 1014.8 0.0
21/08:30pm SSE 22 28 - - - - - - - 24.5 1014.4 0.0
21/08:00pm SSE 22 27 - - - - - - - 24.7 1014.3 0.0
21/07:30pm SSE 21 26 - - - - - - - 24.6 1014.1 0.0
21/07:00pm SSE 23 28 - - - - - - - 24.7 1013.6 0.0
21/06:30pm SSE 22 27 - - - - - - - 24.9 1013.3 0.0
21/06:00pm SSE 21 26 - - - - - - - 25.3 1012.9 0.0
21/05:30pm SSE 21 26 - - - - - - - 25.8 1012.7 0.0
21/05:00pm SSE 21 26 - - - - - - - 26.6 1012.5 0.0
21/04:30pm SE 22 28 - - - - - - - 27.2 1012.3 0.0
21/04:00pm SE 21 27 - - - - - - - 27.7 1012.2 0.0
21/03:30pm SE 21 27 - - - - - - - 28.5 1012.3 0.0
21/03:00pm SE 21 26 - - - - - - - 28.8 1012.3 0.0
21/02:30pm SE 22 26 - - - - - - - 29.0 1012.5 0.0
21/02:00pm SE 21 27 - - - - - - - 29.6 1012.8 0.0
21/01:30pm SE 19 24 - - - - - - - 29.0 1013.4 0.0
21/01:00pm SE 21 26 - - - - - - - 28.2 1013.8 0.0
21/12:30pm SE 21 25 - - - - - - - 28.3 1014.2 0.0
21/12:00pm SE 20 25 - - - - - - - 29.4 1014.5 0.0
21/11:30am SE 20 26 - - - - - - - 27.9 1014.8 0.0
21/11:00am SE 20 25 - - - - - - - 29.3 1015.0 0.0
21/10:30am SE 19 25 - - - - - - - 28.9 1015.3 0.0
21/10:00am SE 20 25 - - - - - - - 28.5 1015.5 0.0
21/09:30am SE 21 26 - - - - - - - 26.9 1015.7 0.0
21/09:00am SSE 21 27 - - - - - - - 26.6 1015.5 0.2
21/08:30am SE 19 24 - - - - - - - 26.5 1015.3 0.2
21/08:00am SE 19 24 - - - - - - - 25.8 1015.0 0.2
21/07:30am SE 19 24 - - - - - - - 25.5 1014.7 0.2
21/07:00am SE 19 24 - - - - - - - 25.1 1014.5 0.2
21/06:30am SE 20 26 - - - - - - - 24.9 1014.3 0.2
21/06:00am SE 19 24 - - - - - - - 24.9 1014.3 0.2
21/05:30am SE 20 24 - - - - - - - 25.0 1014.2 0.2
21/05:00am SE 19 23 - - - - - - - 24.6 1014.3 0.2
21/04:30am SSE 19 24 - - - - - - - 24.8 1014.1 0.2
21/04:00am SE 18 22 - - - - - - - 24.9 1014.1 0.2
21/03:30am SE 18 22 - - - - - - - 25.0 1013.9 0.2
21/03:00am SE 18 23 - - - - - - - 25.1 1013.9 0.2
21/02:30am SE 17 21 - - - - - - - 25.3 1013.9 0.2
21/02:00am SE 18 23 - - - - - - - 25.1 1014.1 0.2
21/01:30am SE 18 21 - - - - - - - 25.3 1014.2 0.2
21/01:00am SE 18 22 - - - - - - - 25.3 1014.3 0.2
21/12:30am SE 17 21 - - - - - - - 25.2 1014.5 0.2
21/12:00am SE 18 22 - - - - - - - 25.2 1014.5 0.2
 
Date/Time
CST
Wind Sea
Height
m
Swell Vis
km
Cloud Weather Temp
°C
Press
hPa
Rain since
9am
mm
Dir  Spd
kts
Gust
kts
Height
m
Period
s
Dir
20/11:30pm SE 18 23 - - - - - - - 25.3 1014.5 0.2
20/11:00pm SE 18 22 - - - - - - - 25.2 1014.4 0.2
20/10:30pm SE 18 22 - - - - - - - 25.2 1014.7 0.2
20/10:00pm SE 18 22 - - - - - - - 25.2 1014.8 0.2
20/09:30pm SE 18 22 - - - - - - - 25.3 1014.8 0.2
20/09:00pm SE 19 22 - - - - - - - 25.3 1014.7 0.2
20/08:30pm SE 18 22 - - - - - - - 25.4 1014.4 0.2
20/08:00pm SE 19 22 - - - - - - - 25.5 1014.1 0.2
20/07:30pm ESE 18 22 - - - - - - - 25.6 1013.7 0.2
20/07:00pm ESE 17 20 - - - - - - - 25.5 1013.5 0.2
20/06:30pm SE 15 19 - - - - - - - 25.4 1013.2 0.2
20/06:00pm ESE 15 19 - - - - - - - 25.8 1013.0 0.2
20/05:30pm ESE 16 20 - - - - - - - 26.3 1012.8 0.2
20/05:00pm ESE 17 21 - - - - - - - 27.3 1012.3 0.2
20/04:30pm ESE 17 21 - - - - - - - 27.8 1012.3 0.2
20/04:00pm ESE 18 21 - - - - - - - 28.1 1012.3 0.2
20/03:30pm ESE 16 20 - - - - - - - 28.5 1012.4 0.2
20/03:00pm ESE 15 19 - - - - - - - 29.1 1012.9 0.2
20/02:30pm ESE 16 19 - - - - - - - 28.7 1013.1 0.2
20/02:00pm ESE 15 19 - - - - - - - 29.3 1013.5 0.2
20/01:30pm ESE 17 21 - - - - - - - 29.0 1013.8 0.2
20/01:00pm ESE 17 21 - - - - - - - 29.1 1014.0 0.2
20/12:30pm ESE 16 20 - - - - - - - 28.8 1014.5 0.2
20/12:00pm ESE 17 21 - - - - - - - 28.5 1014.7 0.2

Other Formats:

Comma delimited format used in spreadsheet applications
http://www.bom.gov.au/fwo/IDD60701/IDD60701.94147.axf

JavaScript Object Notation format (JSON) in row-major order
http://www.bom.gov.au/fwo/IDD60701/IDD60701.94147.json